sensor_id;sensor_type;location;lat;lon;timestamp;P1;durP1;ratioP1;P2;durP2;ratioP2
64641;SDS011;59936;51.490;5.436;2023-04-06T00:00:17;20.20;;;11.50;;
64641;SDS011;59936;51.490;5.436;2023-04-06T00:02:43;14.10;;;10.20;;
64641;SDS011;59936;51.490;5.436;2023-04-06T00:05:09;14.30;;;9.70;;
64641;SDS011;59936;51.490;5.436;2023-04-06T00:07:35;14.50;;;9.40;;
64641;SDS011;59936;51.490;5.436;2023-04-06T00:10:01;12.80;;;8.20;;
64641;SDS011;59936;51.490;5.436;2023-04-06T00:12:28;18.40;;;10.90;;
64641;SDS011;59936;51.490;5.436;2023-04-06T00:14:53;15.80;;;10.60;;
64641;SDS011;59936;51.490;5.436;2023-04-06T00:17:19;22.20;;;9.80;;
64641;SDS011;59936;51.490;5.436;2023-04-06T00:19:45;16.30;;;9.40;;
64641;SDS011;59936;51.490;5.436;2023-04-06T00:22:11;14.20;;;10.20;;
64641;SDS011;59936;51.490;5.436;2023-04-06T00:24:37;15.90;;;9.50;;
64641;SDS011;59936;51.490;5.436;2023-04-06T00:27:03;15.40;;;9.90;;
64641;SDS011;59936;51.490;5.436;2023-04-06T00:29:28;15.70;;;9.20;;
64641;SDS011;59936;51.490;5.436;2023-04-06T00:31:54;13.90;;;9.70;;
64641;SDS011;59936;51.490;5.436;2023-04-06T00:34:20;14.80;;;10.20;;
64641;SDS011;59936;51.490;5.436;2023-04-06T00:36:46;15.90;;;9.60;;
64641;SDS011;59936;51.490;5.436;2023-04-06T00:39:12;13.60;;;10.10;;
64641;SDS011;59936;51.490;5.436;2023-04-06T00:41:38;16.20;;;10.30;;
64641;SDS011;59936;51.490;5.436;2023-04-06T00:44:06;17.50;;;10.40;;
64641;SDS011;59936;51.490;5.436;2023-04-06T00:46:32;14.60;;;9.70;;
64641;SDS011;59936;51.490;5.436;2023-04-06T00:48:58;17.60;;;9.90;;
64641;SDS011;59936;51.490;5.436;2023-04-06T00:51:24;16.60;;;9.80;;
64641;SDS011;59936;51.490;5.436;2023-04-06T00:53:49;16.80;;;10.90;;
64641;SDS011;59936;51.490;5.436;2023-04-06T00:56:15;18.10;;;10.20;;
64641;SDS011;59936;51.490;5.436;2023-04-06T00:58:41;16.20;;;10.60;;
64641;SDS011;59936;51.490;5.436;2023-04-06T01:01:07;19.20;;;10.90;;
64641;SDS011;59936;51.490;5.436;2023-04-06T01:03:33;16.80;;;9.30;;
64641;SDS011;59936;51.490;5.436;2023-04-06T01:05:59;15.40;;;9.50;;
64641;SDS011;59936;51.490;5.436;2023-04-06T01:08:25;16.70;;;10.10;;
64641;SDS011;59936;51.490;5.436;2023-04-06T01:10:50;16.40;;;10.10;;
64641;SDS011;59936;51.490;5.436;2023-04-06T01:13:16;17.10;;;10.20;;
64641;SDS011;59936;51.490;5.436;2023-04-06T01:15:42;16.80;;;10.20;;
64641;SDS011;59936;51.490;5.436;2023-04-06T01:18:08;16.20;;;10.90;;
64641;SDS011;59936;51.490;5.436;2023-04-06T01:20:34;16.30;;;11.80;;
64641;SDS011;59936;51.490;5.436;2023-04-06T01:23:00;17.90;;;10.70;;
64641;SDS011;59936;51.490;5.436;2023-04-06T01:25:26;18.10;;;10.40;;
64641;SDS011;59936;51.490;5.436;2023-04-06T01:27:52;17.60;;;11.70;;
64641;SDS011;59936;51.490;5.436;2023-04-06T01:30:18;15.40;;;11.00;;
64641;SDS011;59936;51.490;5.436;2023-04-06T01:35:09;20.50;;;9.35;;
64641;SDS011;59936;51.490;5.436;2023-04-06T01:37:35;15.40;;;10.60;;
64641;SDS011;59936;51.490;5.436;2023-04-06T01:40:01;18.30;;;11.30;;
64641;SDS011;59936;51.490;5.436;2023-04-06T01:42:27;18.00;;;11.20;;
64641;SDS011;59936;51.490;5.436;2023-04-06T01:44:53;16.40;;;9.80;;
64641;SDS011;59936;51.490;5.436;2023-04-06T01:47:19;18.50;;;10.90;;
64641;SDS011;59936;51.490;5.436;2023-04-06T01:49:45;19.80;;;10.80;;
64641;SDS011;59936;51.490;5.436;2023-04-06T01:52:10;17.30;;;10.70;;
64641;SDS011;59936;51.490;5.436;2023-04-06T01:54:36;20.20;;;11.30;;
64641;SDS011;59936;51.490;5.436;2023-04-06T01:57:02;19.00;;;11.70;;
64641;SDS011;59936;51.490;5.436;2023-04-06T01:59:28;16.40;;;12.10;;
64641;SDS011;59936;51.490;5.436;2023-04-06T02:01:54;20.90;;;12.80;;
64641;SDS011;59936;51.490;5.436;2023-04-06T02:04:20;19.50;;;11.90;;
64641;SDS011;59936;51.490;5.436;2023-04-06T02:06:46;13.90;;;10.20;;
64641;SDS011;59936;51.490;5.436;2023-04-06T02:09:11;20.50;;;12.70;;
64641;SDS011;59936;51.490;5.436;2023-04-06T02:11:37;21.70;;;11.70;;
64641;SDS011;59936;51.490;5.436;2023-04-06T02:14:03;22.60;;;12.60;;
64641;SDS011;59936;51.490;5.436;2023-04-06T02:16:29;23.50;;;12.30;;
64641;SDS011;59936;51.490;5.436;2023-04-06T02:18:55;18.70;;;11.20;;
64641;SDS011;59936;51.490;5.436;2023-04-06T02:21:21;19.10;;;12.20;;
64641;SDS011;59936;51.490;5.436;2023-04-06T02:23:46;18.90;;;10.30;;
64641;SDS011;59936;51.490;5.436;2023-04-06T02:26:13;20.80;;;11.60;;
64641;SDS011;59936;51.490;5.436;2023-04-06T02:28:39;16.70;;;11.90;;
64641;SDS011;59936;51.490;5.436;2023-04-06T02:31:04;19.20;;;12.60;;
64641;SDS011;59936;51.490;5.436;2023-04-06T02:33:30;22.10;;;12.40;;
64641;SDS011;59936;51.490;5.436;2023-04-06T02:35:56;19.30;;;12.50;;
64641;SDS011;59936;51.490;5.436;2023-04-06T02:38:22;21.20;;;13.10;;
64641;SDS011;59936;51.490;5.436;2023-04-06T02:40:48;16.50;;;10.90;;
64641;SDS011;59936;51.490;5.436;2023-04-06T02:43:14;24.10;;;12.50;;
64641;SDS011;59936;51.490;5.436;2023-04-06T02:45:40;18.50;;;12.70;;
64641;SDS011;59936;51.490;5.436;2023-04-06T02:48:05;23.00;;;13.50;;
64641;SDS011;59936;51.490;5.436;2023-04-06T02:50:31;20.50;;;12.10;;
64641;SDS011;59936;51.490;5.436;2023-04-06T02:52:57;22.80;;;13.50;;
64641;SDS011;59936;51.490;5.436;2023-04-06T02:55:23;30.50;;;13.60;;
64641;SDS011;59936;51.490;5.436;2023-04-06T02:57:49;21.50;;;13.80;;
64641;SDS011;59936;51.490;5.436;2023-04-06T03:00:15;19.60;;;12.90;;
64641;SDS011;59936;51.490;5.436;2023-04-06T03:02:41;18.80;;;12.60;;
64641;SDS011;59936;51.490;5.436;2023-04-06T03:05:06;21.40;;;14.10;;
64641;SDS011;59936;51.490;5.436;2023-04-06T03:07:32;23.50;;;13.80;;
64641;SDS011;59936;51.490;5.436;2023-04-06T03:09:58;25.10;;;14.30;;
64641;SDS011;59936;51.490;5.436;2023-04-06T03:12:24;18.10;;;12.80;;
64641;SDS011;59936;51.490;5.436;2023-04-06T03:14:50;21.50;;;12.80;;
64641;SDS011;59936;51.490;5.436;2023-04-06T03:17:16;19.50;;;12.20;;
64641;SDS011;59936;51.490;5.436;2023-04-06T03:19:41;21.70;;;13.30;;
64641;SDS011;59936;51.490;5.436;2023-04-06T03:22:07;20.60;;;12.00;;
64641;SDS011;59936;51.490;5.436;2023-04-06T03:24:33;17.30;;;11.80;;
64641;SDS011;59936;51.490;5.436;2023-04-06T03:26:59;22.00;;;13.80;;
64641;SDS011;59936;51.490;5.436;2023-04-06T03:29:25;21.20;;;13.00;;
64641;SDS011;59936;51.490;5.436;2023-04-06T03:31:51;21.30;;;12.10;;
64641;SDS011;59936;51.490;5.436;2023-04-06T03:34:17;21.90;;;12.90;;
64641;SDS011;59936;51.490;5.436;2023-04-06T03:36:42;23.40;;;13.40;;
64641;SDS011;59936;51.490;5.436;2023-04-06T03:39:08;19.90;;;12.70;;
64641;SDS011;59936;51.490;5.436;2023-04-06T03:41:34;19.20;;;13.40;;
64641;SDS011;59936;51.490;5.436;2023-04-06T03:44:00;14.10;;;10.60;;
64641;SDS011;59936;51.490;5.436;2023-04-06T03:46:26;21.10;;;12.80;;
64641;SDS011;59936;51.490;5.436;2023-04-06T03:48:52;17.80;;;13.00;;
64641;SDS011;59936;51.490;5.436;2023-04-06T03:51:17;18.90;;;12.00;;
64641;SDS011;59936;51.490;5.436;2023-04-06T03:53:43;17.80;;;12.60;;
64641;SDS011;59936;51.490;5.436;2023-04-06T03:56:09;21.40;;;14.00;;
64641;SDS011;59936;51.490;5.436;2023-04-06T03:58:35;20.10;;;13.00;;
64641;SDS011;59936;51.490;5.436;2023-04-06T04:01:01;22.80;;;12.80;;
64641;SDS011;59936;51.490;5.436;2023-04-06T04:03:27;25.70;;;13.40;;
64641;SDS011;59936;51.490;5.436;2023-04-06T04:05:53;22.30;;;12.60;;
64641;SDS011;59936;51.490;5.436;2023-04-06T04:08:19;21.90;;;13.30;;
64641;SDS011;59936;51.490;5.436;2023-04-06T04:10:45;19.20;;;11.40;;
64641;SDS011;59936;51.490;5.436;2023-04-06T04:13:11;22.50;;;13.70;;
64641;SDS011;59936;51.490;5.436;2023-04-06T04:15:36;20.10;;;12.30;;
64641;SDS011;59936;51.490;5.436;2023-04-06T04:18:02;21.00;;;13.30;;
64641;SDS011;59936;51.490;5.436;2023-04-06T04:20:28;23.10;;;12.90;;
64641;SDS011;59936;51.490;5.436;2023-04-06T04:22:54;21.10;;;13.20;;
64641;SDS011;59936;51.490;5.436;2023-04-06T04:25:20;21.40;;;13.50;;
64641;SDS011;59936;51.490;5.436;2023-04-06T04:27:46;19.80;;;13.30;;
64641;SDS011;59936;51.490;5.436;2023-04-06T04:30:12;19.40;;;13.30;;
64641;SDS011;59936;51.490;5.436;2023-04-06T04:32:37;19.40;;;12.70;;
64641;SDS011;59936;51.490;5.436;2023-04-06T04:35:03;18.30;;;12.40;;
64641;SDS011;59936;51.490;5.436;2023-04-06T04:37:29;18.30;;;11.50;;
64641;SDS011;59936;51.490;5.436;2023-04-06T04:39:55;13.10;;;9.10;;
64641;SDS011;59936;51.490;5.436;2023-04-06T04:42:21;23.90;;;13.70;;
64641;SDS011;59936;51.490;5.436;2023-04-06T04:44:47;19.60;;;12.70;;
64641;SDS011;59936;51.490;5.436;2023-04-06T04:47:13;22.20;;;13.70;;
64641;SDS011;59936;51.490;5.436;2023-04-06T04:49:38;14.70;;;9.70;;
64641;SDS011;59936;51.490;5.436;2023-04-06T04:52:04;21.20;;;13.10;;
64641;SDS011;59936;51.490;5.436;2023-04-06T04:54:30;15.00;;;9.70;;
64641;SDS011;59936;51.490;5.436;2023-04-06T04:56:56;20.40;;;13.60;;
64641;SDS011;59936;51.490;5.436;2023-04-06T04:59:22;19.10;;;11.60;;
64641;SDS011;59936;51.490;5.436;2023-04-06T05:01:48;30.50;;;13.10;;
64641;SDS011;59936;51.490;5.436;2023-04-06T05:04:14;24.80;;;13.20;;
64641;SDS011;59936;51.490;5.436;2023-04-06T05:06:39;20.60;;;13.30;;
64641;SDS011;59936;51.490;5.436;2023-04-06T05:09:05;23.10;;;13.60;;
64641;SDS011;59936;51.490;5.436;2023-04-06T05:11:31;21.10;;;13.30;;
64641;SDS011;59936;51.490;5.436;2023-04-06T05:13:57;20.10;;;13.60;;
64641;SDS011;59936;51.490;5.436;2023-04-06T05:16:23;19.90;;;13.50;;
64641;SDS011;59936;51.490;5.436;2023-04-06T05:18:49;21.60;;;13.30;;
64641;SDS011;59936;51.490;5.436;2023-04-06T05:21:15;22.10;;;13.60;;
64641;SDS011;59936;51.490;5.436;2023-04-06T05:23:40;24.00;;;15.20;;
64641;SDS011;59936;51.490;5.436;2023-04-06T05:26:06;26.50;;;14.50;;
64641;SDS011;59936;51.490;5.436;2023-04-06T05:28:32;29.30;;;13.90;;
64641;SDS011;59936;51.490;5.436;2023-04-06T05:30:58;20.40;;;15.00;;
64641;SDS011;59936;51.490;5.436;2023-04-06T05:33:24;20.80;;;13.90;;
64641;SDS011;59936;51.490;5.436;2023-04-06T05:35:50;22.70;;;13.80;;
64641;SDS011;59936;51.490;5.436;2023-04-06T05:38:16;25.00;;;14.60;;
64641;SDS011;59936;51.490;5.436;2023-04-06T05:40:41;20.00;;;13.30;;
64641;SDS011;59936;51.490;5.436;2023-04-06T05:43:07;18.10;;;12.30;;
64641;SDS011;59936;51.490;5.436;2023-04-06T05:45:33;16.70;;;11.60;;
64641;SDS011;59936;51.490;5.436;2023-04-06T05:47:59;20.60;;;12.10;;
64641;SDS011;59936;51.490;5.436;2023-04-06T05:50:25;20.60;;;12.20;;
64641;SDS011;59936;51.490;5.436;2023-04-06T05:52:51;24.20;;;14.30;;
64641;SDS011;59936;51.490;5.436;2023-04-06T05:55:17;18.80;;;13.60;;
64641;SDS011;59936;51.490;5.436;2023-04-06T05:57:43;22.20;;;13.10;;
64641;SDS011;59936;51.490;5.436;2023-04-06T06:00:09;25.10;;;14.10;;
64641;SDS011;59936;51.490;5.436;2023-04-06T06:02:35;19.20;;;11.90;;
64641;SDS011;59936;51.490;5.436;2023-04-06T06:05:01;26.30;;;15.00;;
64641;SDS011;59936;51.490;5.436;2023-04-06T06:07:27;19.30;;;12.90;;
64641;SDS011;59936;51.490;5.436;2023-04-06T06:09:55;7.30;;;4.70;;
64641;SDS011;59936;51.490;5.436;2023-04-06T06:12:22;18.50;;;12.30;;
64641;SDS011;59936;51.490;5.436;2023-04-06T06:14:48;19.10;;;11.80;;
64641;SDS011;59936;51.490;5.436;2023-04-06T06:17:14;24.00;;;14.50;;
64641;SDS011;59936;51.490;5.436;2023-04-06T06:19:39;21.50;;;13.30;;
64641;SDS011;59936;51.490;5.436;2023-04-06T06:22:05;23.90;;;13.30;;
64641;SDS011;59936;51.490;5.436;2023-04-06T06:24:31;26.50;;;12.60;;
64641;SDS011;59936;51.490;5.436;2023-04-06T06:26:57;18.30;;;12.50;;
64641;SDS011;59936;51.490;5.436;2023-04-06T06:29:23;19.20;;;13.00;;
64641;SDS011;59936;51.490;5.436;2023-04-06T06:31:49;18.50;;;12.90;;
64641;SDS011;59936;51.490;5.436;2023-04-06T06:34:14;20.20;;;11.90;;
64641;SDS011;59936;51.490;5.436;2023-04-06T06:36:40;22.40;;;12.00;;
64641;SDS011;59936;51.490;5.436;2023-04-06T06:39:06;20.70;;;13.00;;
64641;SDS011;59936;51.490;5.436;2023-04-06T06:41:32;17.90;;;13.00;;
64641;SDS011;59936;51.490;5.436;2023-04-06T06:43:58;26.20;;;12.90;;
64641;SDS011;59936;51.490;5.436;2023-04-06T06:46:24;18.20;;;11.50;;
64641;SDS011;59936;51.490;5.436;2023-04-06T06:48:50;17.00;;;11.50;;
64641;SDS011;59936;51.490;5.436;2023-04-06T06:51:15;20.20;;;12.40;;
64641;SDS011;59936;51.490;5.436;2023-04-06T06:53:41;23.60;;;12.80;;
64641;SDS011;59936;51.490;5.436;2023-04-06T06:56:07;18.70;;;12.10;;
64641;SDS011;59936;51.490;5.436;2023-04-06T06:58:33;18.80;;;12.90;;
64641;SDS011;59936;51.490;5.436;2023-04-06T07:00:59;25.40;;;14.30;;
64641;SDS011;59936;51.490;5.436;2023-04-06T07:03:25;22.80;;;12.60;;
64641;SDS011;59936;51.490;5.436;2023-04-06T07:05:51;23.50;;;13.90;;
64641;SDS011;59936;51.490;5.436;2023-04-06T07:08:17;23.20;;;13.90;;
64641;SDS011;59936;51.490;5.436;2023-04-06T07:10:43;22.90;;;13.70;;
64641;SDS011;59936;51.490;5.436;2023-04-06T07:13:09;16.70;;;12.10;;
64641;SDS011;59936;51.490;5.436;2023-04-06T07:15:35;20.60;;;12.90;;
64641;SDS011;59936;51.490;5.436;2023-04-06T07:18:00;18.30;;;12.30;;
64641;SDS011;59936;51.490;5.436;2023-04-06T07:20:26;21.30;;;13.10;;
64641;SDS011;59936;51.490;5.436;2023-04-06T07:22:52;23.10;;;13.80;;
64641;SDS011;59936;51.490;5.436;2023-04-06T07:25:18;23.30;;;13.60;;
64641;SDS011;59936;51.490;5.436;2023-04-06T07:27:44;20.70;;;11.70;;
64641;SDS011;59936;51.490;5.436;2023-04-06T07:30:10;15.80;;;10.80;;
64641;SDS011;59936;51.490;5.436;2023-04-06T07:32:36;22.30;;;13.30;;
64641;SDS011;59936;51.490;5.436;2023-04-06T07:35:02;18.20;;;12.60;;
64641;SDS011;59936;51.490;5.436;2023-04-06T07:37:28;21.60;;;13.80;;
64641;SDS011;59936;51.490;5.436;2023-04-06T07:39:54;21.50;;;13.80;;
64641;SDS011;59936;51.490;5.436;2023-04-06T07:44:45;19.00;;;12.40;;
64641;SDS011;59936;51.490;5.436;2023-04-06T07:47:11;22.20;;;12.00;;
64641;SDS011;59936;51.490;5.436;2023-04-06T07:49:37;16.50;;;11.40;;
64641;SDS011;59936;51.490;5.436;2023-04-06T07:52:03;18.00;;;11.80;;
64641;SDS011;59936;51.490;5.436;2023-04-06T07:54:29;22.40;;;13.00;;
64641;SDS011;59936;51.490;5.436;2023-04-06T07:59:20;21.35;;;13.10;;
64641;SDS011;59936;51.490;5.436;2023-04-06T08:01:46;24.20;;;14.70;;
64641;SDS011;59936;51.490;5.436;2023-04-06T08:04:12;19.50;;;11.40;;
64641;SDS011;59936;51.490;5.436;2023-04-06T08:09:04;27.20;;;14.10;;
64641;SDS011;59936;51.490;5.436;2023-04-06T08:11:29;20.10;;;14.10;;
64641;SDS011;59936;51.490;5.436;2023-04-06T08:13:56;24.60;;;14.30;;
64641;SDS011;59936;51.490;5.436;2023-04-06T08:16:22;20.80;;;14.40;;
64641;SDS011;59936;51.490;5.436;2023-04-06T08:18:48;23.30;;;14.20;;
64641;SDS011;59936;51.490;5.436;2023-04-06T08:21:14;20.10;;;13.30;;
64641;SDS011;59936;51.490;5.436;2023-04-06T08:23:40;21.60;;;13.30;;
64641;SDS011;59936;51.490;5.436;2023-04-06T08:28:31;19.65;;;12.50;;
64641;SDS011;59936;51.490;5.436;2023-04-06T08:33:23;21.55;;;12.25;;
64641;SDS011;59936;51.490;5.436;2023-04-06T08:38:14;20.25;;;13.35;;
64641;SDS011;59936;51.490;5.436;2023-04-06T08:43:06;19.30;;;13.10;;
64641;SDS011;59936;51.490;5.436;2023-04-06T08:45:35;27.80;;;14.70;;
64641;SDS011;59936;51.490;5.436;2023-04-06T08:48:01;21.50;;;13.70;;
64641;SDS011;59936;51.490;5.436;2023-04-06T08:50:31;23.80;;;13.50;;
64641;SDS011;59936;51.490;5.436;2023-04-06T08:52:58;18.10;;;13.90;;
64641;SDS011;59936;51.490;5.436;2023-04-06T08:55:25;22.60;;;14.50;;
64641;SDS011;59936;51.490;5.436;2023-04-06T09:00:17;20.30;;;13.00;;
64641;SDS011;59936;51.490;5.436;2023-04-06T09:02:43;24.60;;;14.20;;
64641;SDS011;59936;51.490;5.436;2023-04-06T09:05:11;16.10;;;12.80;;
64641;SDS011;59936;51.490;5.436;2023-04-06T09:07:37;25.40;;;14.70;;
64641;SDS011;59936;51.490;5.436;2023-04-06T09:12:31;19.40;;;13.70;;
64641;SDS011;59936;51.490;5.436;2023-04-06T09:14:58;19.50;;;13.50;;
64641;SDS011;59936;51.490;5.436;2023-04-06T09:17:25;23.40;;;12.40;;
64641;SDS011;59936;51.490;5.436;2023-04-06T09:19:52;24.50;;;13.60;;
64641;SDS011;59936;51.490;5.436;2023-04-06T09:24:48;19.70;;;13.05;;
64641;SDS011;59936;51.490;5.436;2023-04-06T09:27:15;28.40;;;14.50;;
64641;SDS011;59936;51.490;5.436;2023-04-06T09:29:42;22.90;;;15.00;;
64641;SDS011;59936;51.490;5.436;2023-04-06T09:32:09;18.40;;;12.90;;
64641;SDS011;59936;51.490;5.436;2023-04-06T09:34:37;20.30;;;13.40;;
64641;SDS011;59936;51.490;5.436;2023-04-06T09:37:13;23.40;;;13.20;;
64641;SDS011;59936;51.490;5.436;2023-04-06T09:39:40;19.40;;;13.80;;
64641;SDS011;59936;51.490;5.436;2023-04-06T09:44:32;17.00;;;9.30;;
64641;SDS011;59936;51.490;5.436;2023-04-06T09:49:24;17.85;;;12.75;;
64641;SDS011;59936;51.490;5.436;2023-04-06T09:51:53;17.60;;;13.30;;
64641;SDS011;59936;51.490;5.436;2023-04-06T09:54:22;20.10;;;11.20;;
64641;SDS011;59936;51.490;5.436;2023-04-06T09:56:51;18.70;;;12.50;;
64641;SDS011;59936;51.490;5.436;2023-04-06T10:02:15;18.50;;;12.20;;
64641;SDS011;59936;51.490;5.436;2023-04-06T10:04:53;17.90;;;11.90;;
64641;SDS011;59936;51.490;5.436;2023-04-06T10:07:24;12.70;;;8.80;;
64641;SDS011;59936;51.490;5.436;2023-04-06T10:09:51;16.90;;;11.90;;
64641;SDS011;59936;51.490;5.436;2023-04-06T10:12:19;11.80;;;9.20;;
64641;SDS011;59936;51.490;5.436;2023-04-06T10:14:46;17.40;;;10.40;;
64641;SDS011;59936;51.490;5.436;2023-04-06T10:17:12;16.60;;;11.30;;
64641;SDS011;59936;51.490;5.436;2023-04-06T10:22:03;18.50;;;10.80;;
64641;SDS011;59936;51.490;5.436;2023-04-06T10:24:31;10.60;;;6.40;;
64641;SDS011;59936;51.490;5.436;2023-04-06T10:27:06;12.40;;;9.80;;
64641;SDS011;59936;51.490;5.436;2023-04-06T10:29:45;14.00;;;8.60;;
64641;SDS011;59936;51.490;5.436;2023-04-06T10:32:13;14.90;;;9.50;;
64641;SDS011;59936;51.490;5.436;2023-04-06T10:34:39;12.00;;;8.70;;
64641;SDS011;59936;51.490;5.436;2023-04-06T10:37:15;11.50;;;9.00;;
64641;SDS011;59936;51.490;5.436;2023-04-06T10:39:45;13.20;;;9.20;;
64641;SDS011;59936;51.490;5.436;2023-04-06T10:42:12;13.30;;;9.40;;
64641;SDS011;59936;51.490;5.436;2023-04-06T10:44:42;12.30;;;8.50;;
64641;SDS011;59936;51.490;5.436;2023-04-06T10:47:15;12.80;;;8.30;;
64641;SDS011;59936;51.490;5.436;2023-04-06T10:49:42;9.00;;;7.00;;
64641;SDS011;59936;51.490;5.436;2023-04-06T10:52:07;12.70;;;8.20;;
64641;SDS011;59936;51.490;5.436;2023-04-06T10:54:33;12.00;;;8.70;;
64641;SDS011;59936;51.490;5.436;2023-04-06T10:57:04;10.70;;;7.50;;
64641;SDS011;59936;51.490;5.436;2023-04-06T10:59:30;12.00;;;8.20;;
64641;SDS011;59936;51.490;5.436;2023-04-06T11:01:56;9.50;;;6.80;;
64641;SDS011;59936;51.490;5.436;2023-04-06T11:06:47;8.75;;;6.00;;
64641;SDS011;59936;51.490;5.436;2023-04-06T11:09:27;8.50;;;6.30;;
64641;SDS011;59936;51.490;5.436;2023-04-06T11:11:54;10.70;;;6.90;;
64641;SDS011;59936;51.490;5.436;2023-04-06T11:14:20;10.20;;;7.40;;
64641;SDS011;59936;51.490;5.436;2023-04-06T11:19:13;9.70;;;6.70;;
64641;SDS011;59936;51.490;5.436;2023-04-06T11:21:45;8.80;;;7.50;;
64641;SDS011;59936;51.490;5.436;2023-04-06T11:24:14;9.50;;;7.20;;
64641;SDS011;59936;51.490;5.436;2023-04-06T11:29:13;11.90;;;7.80;;
64641;SDS011;59936;51.490;5.436;2023-04-06T11:31:41;9.30;;;7.10;;
64641;SDS011;59936;51.490;5.436;2023-04-06T11:34:23;9.10;;;6.10;;
64641;SDS011;59936;51.490;5.436;2023-04-06T11:37:03;11.00;;;7.90;;
64641;SDS011;59936;51.490;5.436;2023-04-06T11:39:40;10.70;;;7.10;;
64641;SDS011;59936;51.490;5.436;2023-04-06T11:42:11;8.40;;;6.20;;
64641;SDS011;59936;51.490;5.436;2023-04-06T11:44:43;10.40;;;7.30;;
64641;SDS011;59936;51.490;5.436;2023-04-06T11:47:10;5.90;;;4.00;;
64641;SDS011;59936;51.490;5.436;2023-04-06T11:49:37;5.20;;;4.00;;
64641;SDS011;59936;51.490;5.436;2023-04-06T11:52:14;11.90;;;8.10;;
64641;SDS011;59936;51.490;5.436;2023-04-06T11:54:48;11.40;;;7.90;;
64641;SDS011;59936;51.490;5.436;2023-04-06T11:57:14;12.50;;;7.50;;
64641;SDS011;59936;51.490;5.436;2023-04-06T11:59:42;8.80;;;5.40;;
64641;SDS011;59936;51.490;5.436;2023-04-06T12:02:08;8.60;;;6.50;;
64641;SDS011;59936;51.490;5.436;2023-04-06T12:06:59;6.70;;;4.65;;
64641;SDS011;59936;51.490;5.436;2023-04-06T12:11:51;11.70;;;8.50;;
64641;SDS011;59936;51.490;5.436;2023-04-06T12:16:43;11.50;;;8.00;;
64641;SDS011;59936;51.490;5.436;2023-04-06T12:21:35;11.90;;;8.10;;
64641;SDS011;59936;51.490;5.436;2023-04-06T12:24:00;12.80;;;8.30;;
64641;SDS011;59936;51.490;5.436;2023-04-06T12:26:27;10.00;;;6.80;;
64641;SDS011;59936;51.490;5.436;2023-04-06T12:28:53;11.60;;;8.10;;
64641;SDS011;59936;51.490;5.436;2023-04-06T12:31:20;15.90;;;9.90;;
64641;SDS011;59936;51.490;5.436;2023-04-06T12:33:47;8.40;;;6.70;;
64641;SDS011;59936;51.490;5.436;2023-04-06T12:36:17;13.10;;;9.20;;
64641;SDS011;59936;51.490;5.436;2023-04-06T12:38:44;12.10;;;9.50;;
64641;SDS011;59936;51.490;5.436;2023-04-06T12:41:12;12.90;;;8.10;;
64641;SDS011;59936;51.490;5.436;2023-04-06T12:43:39;11.70;;;8.40;;
64641;SDS011;59936;51.490;5.436;2023-04-06T12:46:07;8.40;;;6.00;;
64641;SDS011;59936;51.490;5.436;2023-04-06T12:50:59;6.00;;;5.40;;
64641;SDS011;59936;51.490;5.436;2023-04-06T12:53:27;8.50;;;6.40;;
64641;SDS011;59936;51.490;5.436;2023-04-06T12:55:53;9.50;;;6.40;;
64641;SDS011;59936;51.490;5.436;2023-04-06T12:58:20;7.60;;;5.90;;
64641;SDS011;59936;51.490;5.436;2023-04-06T13:00:50;8.40;;;6.90;;
64641;SDS011;59936;51.490;5.436;2023-04-06T13:03:16;6.70;;;5.10;;
64641;SDS011;59936;51.490;5.436;2023-04-06T13:05:44;7.40;;;6.20;;
64641;SDS011;59936;51.490;5.436;2023-04-06T13:08:10;12.80;;;7.30;;
64641;SDS011;59936;51.490;5.436;2023-04-06T13:10:36;6.00;;;5.10;;
64641;SDS011;59936;51.490;5.436;2023-04-06T13:15:27;11.30;;;8.30;;
64641;SDS011;59936;51.490;5.436;2023-04-06T13:17:53;10.90;;;6.50;;
64641;SDS011;59936;51.490;5.436;2023-04-06T13:22:45;13.65;;;7.75;;
64641;SDS011;59936;51.490;5.436;2023-04-06T13:25:10;10.10;;;7.10;;
64641;SDS011;59936;51.490;5.436;2023-04-06T13:27:36;13.10;;;8.60;;
64641;SDS011;59936;51.490;5.436;2023-04-06T13:30:03;11.70;;;8.10;;
64641;SDS011;59936;51.490;5.436;2023-04-06T13:32:29;9.20;;;7.20;;
64641;SDS011;59936;51.490;5.436;2023-04-06T13:34:55;12.20;;;7.90;;
64641;SDS011;59936;51.490;5.436;2023-04-06T13:37:21;9.50;;;7.40;;
64641;SDS011;59936;51.490;5.436;2023-04-06T13:39:47;10.40;;;7.70;;
64641;SDS011;59936;51.490;5.436;2023-04-06T13:44:38;10.60;;;8.35;;
64641;SDS011;59936;51.490;5.436;2023-04-06T13:47:04;14.20;;;8.30;;
64641;SDS011;59936;51.490;5.436;2023-04-06T13:49:30;9.20;;;6.80;;
64641;SDS011;59936;51.490;5.436;2023-04-06T13:51:56;10.10;;;6.80;;
64641;SDS011;59936;51.490;5.436;2023-04-06T13:56:48;14.15;;;7.95;;
64641;SDS011;59936;51.490;5.436;2023-04-06T13:59:14;13.40;;;8.30;;
64641;SDS011;59936;51.490;5.436;2023-04-06T14:01:39;9.70;;;7.70;;
64641;SDS011;59936;51.490;5.436;2023-04-06T14:06:31;10.70;;;5.70;;
64641;SDS011;59936;51.490;5.436;2023-04-06T14:08:57;10.60;;;7.30;;
64641;SDS011;59936;51.490;5.436;2023-04-06T14:11:23;6.40;;;5.30;;
64641;SDS011;59936;51.490;5.436;2023-04-06T14:13:49;10.80;;;7.60;;
64641;SDS011;59936;51.490;5.436;2023-04-06T14:16:14;9.10;;;7.80;;
64641;SDS011;59936;51.490;5.436;2023-04-06T14:18:40;8.80;;;7.20;;
64641;SDS011;59936;51.490;5.436;2023-04-06T14:23:32;9.20;;;6.60;;
64641;SDS011;59936;51.490;5.436;2023-04-06T14:26:05;10.20;;;7.30;;
64641;SDS011;59936;51.490;5.436;2023-04-06T14:28:32;9.90;;;7.50;;
64641;SDS011;59936;51.490;5.436;2023-04-06T14:30:59;13.00;;;9.10;;
64641;SDS011;59936;51.490;5.436;2023-04-06T14:33:25;10.50;;;7.70;;
64641;SDS011;59936;51.490;5.436;2023-04-06T14:35:52;13.90;;;9.70;;
64641;SDS011;59936;51.490;5.436;2023-04-06T14:38:17;9.50;;;7.40;;
64641;SDS011;59936;51.490;5.436;2023-04-06T14:43:09;8.60;;;6.50;;
64641;SDS011;59936;51.490;5.436;2023-04-06T14:45:35;13.50;;;9.30;;
64641;SDS011;59936;51.490;5.436;2023-04-06T14:48:01;9.90;;;7.70;;
64641;SDS011;59936;51.490;5.436;2023-04-06T14:50:26;5.30;;;3.80;;
64641;SDS011;59936;51.490;5.436;2023-04-06T14:52:52;11.40;;;8.60;;
64641;SDS011;59936;51.490;5.436;2023-04-06T14:57:44;9.15;;;6.90;;
64641;SDS011;59936;51.490;5.436;2023-04-06T15:00:10;8.10;;;6.40;;
64641;SDS011;59936;51.490;5.436;2023-04-06T15:02:36;10.20;;;7.90;;
64641;SDS011;59936;51.490;5.436;2023-04-06T15:05:02;10.90;;;7.60;;
64641;SDS011;59936;51.490;5.436;2023-04-06T15:07:28;13.50;;;8.80;;
64641;SDS011;59936;51.490;5.436;2023-04-06T15:09:54;12.50;;;9.30;;
64641;SDS011;59936;51.490;5.436;2023-04-06T15:12:20;11.70;;;8.20;;
64641;SDS011;59936;51.490;5.436;2023-04-06T15:17:11;10.65;;;7.70;;
64641;SDS011;59936;51.490;5.436;2023-04-06T15:19:37;12.70;;;7.10;;
64641;SDS011;59936;51.490;5.436;2023-04-06T15:22:03;9.10;;;7.50;;
64641;SDS011;59936;51.490;5.436;2023-04-06T15:24:29;12.00;;;9.00;;
64641;SDS011;59936;51.490;5.436;2023-04-06T15:26:54;10.10;;;8.40;;
64641;SDS011;59936;51.490;5.436;2023-04-06T15:29:20;10.70;;;8.30;;
64641;SDS011;59936;51.490;5.436;2023-04-06T15:31:46;18.60;;;10.20;;
64641;SDS011;59936;51.490;5.436;2023-04-06T15:34:12;11.00;;;8.20;;
64641;SDS011;59936;51.490;5.436;2023-04-06T15:39:03;12.00;;;8.30;;
64641;SDS011;59936;51.490;5.436;2023-04-06T15:41:29;13.00;;;8.60;;
64641;SDS011;59936;51.490;5.436;2023-04-06T15:43:55;11.90;;;9.20;;